sensor_id;sensor_type;location;lat;lon;timestamp;temperature;humidity
14741;DHT22;7462;53.530;9.414;2023-04-12T00:01:45;4.70;99.90
14741;DHT22;7462;53.530;9.414;2023-04-12T00:04:13;4.70;99.90
14741;DHT22;7462;53.530;9.414;2023-04-12T00:06:43;4.70;99.90
14741;DHT22;7462;53.530;9.414;2023-04-12T00:09:14;4.60;99.90
14741;DHT22;7462;53.530;9.414;2023-04-12T00:11:42;4.60;99.90
14741;DHT22;7462;53.530;9.414;2023-04-12T00:14:10;4.60;99.90
14741;DHT22;7462;53.530;9.414;2023-04-12T00:16:38;4.50;99.90
14741;DHT22;7462;53.530;9.414;2023-04-12T00:19:07;4.60;99.90
14741;DHT22;7462;53.530;9.414;2023-04-12T00:21:36;4.60;99.90
14741;DHT22;7462;53.530;9.414;2023-04-12T00:24:06;4.60;99.90
14741;DHT22;7462;53.530;9.414;2023-04-12T00:26:34;4.60;99.90
14741;DHT22;7462;53.530;9.414;2023-04-12T00:29:02;4.50;99.90
14741;DHT22;7462;53.530;9.414;2023-04-12T00:31:30;4.50;99.90
14741;DHT22;7462;53.530;9.414;2023-04-12T00:34:01;4.50;99.90
14741;DHT22;7462;53.530;9.414;2023-04-12T00:36:29;4.50;99.90
14741;DHT22;7462;53.530;9.414;2023-04-12T00:38:57;4.50;99.90
14741;DHT22;7462;53.530;9.414;2023-04-12T00:41:26;4.60;99.90
14741;DHT22;7462;53.530;9.414;2023-04-12T00:43:54;4.60;99.90
14741;DHT22;7462;53.530;9.414;2023-04-12T00:46:23;4.50;99.90
14741;DHT22;7462;53.530;9.414;2023-04-12T00:48:51;4.50;99.90
14741;DHT22;7462;53.530;9.414;2023-04-12T00:51:19;4.50;99.90
14741;DHT22;7462;53.530;9.414;2023-04-12T00:53:48;4.50;99.90
14741;DHT22;7462;53.530;9.414;2023-04-12T00:56:16;4.50;99.90
14741;DHT22;7462;53.530;9.414;2023-04-12T00:58:46;4.50;99.90
14741;DHT22;7462;53.530;9.414;2023-04-12T01:01:15;4.50;99.90
14741;DHT22;7462;53.530;9.414;2023-04-12T01:03:45;4.50;99.90
14741;DHT22;7462;53.530;9.414;2023-04-12T01:06:21;4.50;99.90
14741;DHT22;7462;53.530;9.414;2023-04-12T01:08:59;4.50;99.90
14741;DHT22;7462;53.530;9.414;2023-04-12T01:11:33;4.50;99.90
14741;DHT22;7462;53.530;9.414;2023-04-12T01:14:10;4.50;99.90
14741;DHT22;7462;53.530;9.414;2023-04-12T01:16:41;4.50;99.90
14741;DHT22;7462;53.530;9.414;2023-04-12T01:19:25;4.50;99.90
14741;DHT22;7462;53.530;9.414;2023-04-12T01:22:09;4.50;99.90
14741;DHT22;7462;53.530;9.414;2023-04-12T01:24:49;4.50;99.90
14741;DHT22;7462;53.530;9.414;2023-04-12T01:27:44;4.50;99.90
14741;DHT22;7462;53.530;9.414;2023-04-12T01:30:15;4.50;99.90
14741;DHT22;7462;53.530;9.414;2023-04-12T01:32:47;4.60;99.90
14741;DHT22;7462;53.530;9.414;2023-04-12T01:35:17;4.50;99.90
14741;DHT22;7462;53.530;9.414;2023-04-12T01:37:46;4.50;99.90
14741;DHT22;7462;53.530;9.414;2023-04-12T01:40:17;4.50;99.90
14741;DHT22;7462;53.530;9.414;2023-04-12T01:42:46;4.50;99.90
14741;DHT22;7462;53.530;9.414;2023-04-12T01:45:14;4.50;99.90
14741;DHT22;7462;53.530;9.414;2023-04-12T01:47:42;4.50;99.90
14741;DHT22;7462;53.530;9.414;2023-04-12T01:50:15;4.50;99.90
14741;DHT22;7462;53.530;9.414;2023-04-12T01:52:57;4.50;99.90
14741;DHT22;7462;53.530;9.414;2023-04-12T01:55:29;4.50;99.90
14741;DHT22;7462;53.530;9.414;2023-04-12T01:58:01;4.50;99.90
14741;DHT22;7462;53.530;9.414;2023-04-12T02:00:30;4.50;99.90
14741;DHT22;7462;53.530;9.414;2023-04-12T02:02:59;4.50;99.90
14741;DHT22;7462;53.530;9.414;2023-04-12T02:05:27;4.50;99.90
14741;DHT22;7462;53.530;9.414;2023-04-12T02:07:55;4.50;99.90
14741;DHT22;7462;53.530;9.414;2023-04-12T02:10:27;4.60;99.90
14741;DHT22;7462;53.530;9.414;2023-04-12T02:12:59;4.60;99.90
14741;DHT22;7462;53.530;9.414;2023-04-12T02:15:28;4.60;99.90
14741;DHT22;7462;53.530;9.414;2023-04-12T02:17:58;4.60;99.90
14741;DHT22;7462;53.530;9.414;2023-04-12T02:20:27;4.60;99.90
14741;DHT22;7462;53.530;9.414;2023-04-12T02:22:55;4.60;99.90
14741;DHT22;7462;53.530;9.414;2023-04-12T02:25:23;4.60;99.90
14741;DHT22;7462;53.530;9.414;2023-04-12T02:27:53;4.60;99.90
14741;DHT22;7462;53.530;9.414;2023-04-12T02:30:23;4.60;99.90
14741;DHT22;7462;53.530;9.414;2023-04-12T02:32:52;4.60;99.90
14741;DHT22;7462;53.530;9.414;2023-04-12T02:35:25;4.60;99.90
14741;DHT22;7462;53.530;9.414;2023-04-12T02:38:00;4.70;99.90
14741;DHT22;7462;53.530;9.414;2023-04-12T02:40:29;4.70;99.90
14741;DHT22;7462;53.530;9.414;2023-04-12T02:42:57;4.70;99.90
14741;DHT22;7462;53.530;9.414;2023-04-12T02:45:27;4.70;99.90
14741;DHT22;7462;53.530;9.414;2023-04-12T02:47:56;4.80;99.90
14741;DHT22;7462;53.530;9.414;2023-04-12T02:50:28;4.80;99.90
14741;DHT22;7462;53.530;9.414;2023-04-12T02:53:08;4.80;99.90
14741;DHT22;7462;53.530;9.414;2023-04-12T02:55:37;4.80;99.90
14741;DHT22;7462;53.530;9.414;2023-04-12T02:58:07;4.80;99.90
14741;DHT22;7462;53.530;9.414;2023-04-12T03:00:44;4.90;99.90
14741;DHT22;7462;53.530;9.414;2023-04-12T03:03:15;4.80;99.90
14741;DHT22;7462;53.530;9.414;2023-04-12T03:05:47;4.90;99.90
14741;DHT22;7462;53.530;9.414;2023-04-12T03:08:16;4.90;99.90
14741;DHT22;7462;53.530;9.414;2023-04-12T03:10:51;4.90;99.90
14741;DHT22;7462;53.530;9.414;2023-04-12T03:13:20;4.90;99.90
14741;DHT22;7462;53.530;9.414;2023-04-12T03:15:54;5.00;99.90
14741;DHT22;7462;53.530;9.414;2023-04-12T03:18:30;5.00;99.90
14741;DHT22;7462;53.530;9.414;2023-04-12T03:20:58;5.00;99.90
14741;DHT22;7462;53.530;9.414;2023-04-12T03:23:28;5.00;99.90
14741;DHT22;7462;53.530;9.414;2023-04-12T03:26:06;5.00;99.90
14741;DHT22;7462;53.530;9.414;2023-04-12T03:28:34;5.00;99.90
14741;DHT22;7462;53.530;9.414;2023-04-12T03:31:06;5.10;99.90
14741;DHT22;7462;53.530;9.414;2023-04-12T03:33:38;5.10;99.90
14741;DHT22;7462;53.530;9.414;2023-04-12T03:36:16;5.10;99.90
14741;DHT22;7462;53.530;9.414;2023-04-12T03:38:50;5.10;99.90
14741;DHT22;7462;53.530;9.414;2023-04-12T03:41:20;5.10;99.90
14741;DHT22;7462;53.530;9.414;2023-04-12T03:43:49;5.10;99.90
14741;DHT22;7462;53.530;9.414;2023-04-12T03:46:19;5.10;99.90
14741;DHT22;7462;53.530;9.414;2023-04-12T03:48:54;5.10;99.90
14741;DHT22;7462;53.530;9.414;2023-04-12T03:51:24;5.10;99.90
14741;DHT22;7462;53.530;9.414;2023-04-12T03:53:59;5.10;99.90
14741;DHT22;7462;53.530;9.414;2023-04-12T03:56:38;5.20;99.90
14741;DHT22;7462;53.530;9.414;2023-04-12T03:59:12;5.20;99.90
14741;DHT22;7462;53.530;9.414;2023-04-12T04:01:43;5.20;99.90
14741;DHT22;7462;53.530;9.414;2023-04-12T04:04:11;5.10;99.90
14741;DHT22;7462;53.530;9.414;2023-04-12T04:06:40;5.20;99.90
14741;DHT22;7462;53.530;9.414;2023-04-12T04:09:08;5.20;99.90
14741;DHT22;7462;53.530;9.414;2023-04-12T04:11:37;5.20;99.90
14741;DHT22;7462;53.530;9.414;2023-04-12T04:14:06;5.20;99.90
14741;DHT22;7462;53.530;9.414;2023-04-12T04:16:34;5.20;99.90
14741;DHT22;7462;53.530;9.414;2023-04-12T04:19:06;5.20;99.90
14741;DHT22;7462;53.530;9.414;2023-04-12T04:21:35;5.20;99.90
14741;DHT22;7462;53.530;9.414;2023-04-12T04:24:03;5.20;99.90
14741;DHT22;7462;53.530;9.414;2023-04-12T04:26:37;5.20;99.90
14741;DHT22;7462;53.530;9.414;2023-04-12T04:29:18;5.30;99.90
14741;DHT22;7462;53.530;9.414;2023-04-12T04:31:46;5.20;99.90
14741;DHT22;7462;53.530;9.414;2023-04-12T04:34:17;5.30;99.90
14741;DHT22;7462;53.530;9.414;2023-04-12T04:36:47;5.30;99.90
14741;DHT22;7462;53.530;9.414;2023-04-12T04:39:24;5.30;99.90
14741;DHT22;7462;53.530;9.414;2023-04-12T04:41:54;5.30;99.90
14741;DHT22;7462;53.530;9.414;2023-04-12T04:44:47;5.30;99.90
14741;DHT22;7462;53.530;9.414;2023-04-12T04:47:16;5.30;99.90
14741;DHT22;7462;53.530;9.414;2023-04-12T04:49:46;5.30;99.90
14741;DHT22;7462;53.530;9.414;2023-04-12T04:52:25;5.30;99.90
14741;DHT22;7462;53.530;9.414;2023-04-12T04:54:59;5.40;99.90
14741;DHT22;7462;53.530;9.414;2023-04-12T04:57:35;5.30;99.90
14741;DHT22;7462;53.530;9.414;2023-04-12T05:00:04;5.30;99.90
14741;DHT22;7462;53.530;9.414;2023-04-12T05:02:39;5.30;99.90
14741;DHT22;7462;53.530;9.414;2023-04-12T05:05:13;5.30;99.90
14741;DHT22;7462;53.530;9.414;2023-04-12T05:07:43;5.30;99.90
14741;DHT22;7462;53.530;9.414;2023-04-12T05:10:11;5.30;99.90
14741;DHT22;7462;53.530;9.414;2023-04-12T05:12:40;5.30;99.90
14741;DHT22;7462;53.530;9.414;2023-04-12T05:15:11;5.40;99.90
14741;DHT22;7462;53.530;9.414;2023-04-12T05:17:40;5.40;99.90
14741;DHT22;7462;53.530;9.414;2023-04-12T05:20:09;5.50;99.90
14741;DHT22;7462;53.530;9.414;2023-04-12T05:22:39;5.50;99.90
14741;DHT22;7462;53.530;9.414;2023-04-12T05:25:08;5.50;99.90
14741;DHT22;7462;53.530;9.414;2023-04-12T05:27:43;5.50;99.90
14741;DHT22;7462;53.530;9.414;2023-04-12T05:30:14;5.50;99.90
14741;DHT22;7462;53.530;9.414;2023-04-12T05:32:43;5.60;99.90
14741;DHT22;7462;53.530;9.414;2023-04-12T05:35:13;5.70;99.90
14741;DHT22;7462;53.530;9.414;2023-04-12T05:37:44;5.80;99.90
14741;DHT22;7462;53.530;9.414;2023-04-12T05:40:12;5.90;99.90
14741;DHT22;7462;53.530;9.414;2023-04-12T05:42:41;6.00;99.90
14741;DHT22;7462;53.530;9.414;2023-04-12T05:45:10;6.10;99.90
14741;DHT22;7462;53.530;9.414;2023-04-12T05:47:40;6.20;99.90
14741;DHT22;7462;53.530;9.414;2023-04-12T05:50:09;6.20;99.90
14741;DHT22;7462;53.530;9.414;2023-04-12T05:52:37;6.40;99.90
14741;DHT22;7462;53.530;9.414;2023-04-12T05:55:08;6.40;99.90
14741;DHT22;7462;53.530;9.414;2023-04-12T05:57:39;6.50;99.90
14741;DHT22;7462;53.530;9.414;2023-04-12T06:00:08;6.50;99.90
14741;DHT22;7462;53.530;9.414;2023-04-12T06:02:42;6.60;99.90
14741;DHT22;7462;53.530;9.414;2023-04-12T06:05:11;6.70;99.90
14741;DHT22;7462;53.530;9.414;2023-04-12T06:07:40;6.80;99.90
14741;DHT22;7462;53.530;9.414;2023-04-12T06:10:14;7.00;99.90
14741;DHT22;7462;53.530;9.414;2023-04-12T06:12:47;7.10;99.90
14741;DHT22;7462;53.530;9.414;2023-04-12T06:15:15;7.20;99.90
14741;DHT22;7462;53.530;9.414;2023-04-12T06:17:46;7.40;99.90
14741;DHT22;7462;53.530;9.414;2023-04-12T06:20:14;7.60;99.90
14741;DHT22;7462;53.530;9.414;2023-04-12T06:22:42;7.70;99.90
14741;DHT22;7462;53.530;9.414;2023-04-12T06:25:15;7.70;99.90
14741;DHT22;7462;53.530;9.414;2023-04-12T06:27:46;7.70;99.90
14741;DHT22;7462;53.530;9.414;2023-04-12T06:30:17;7.80;99.90
14741;DHT22;7462;53.530;9.414;2023-04-12T06:32:45;7.80;99.90
14741;DHT22;7462;53.530;9.414;2023-04-12T06:35:14;7.70;99.90
14741;DHT22;7462;53.530;9.414;2023-04-12T06:37:42;7.80;99.90
14741;DHT22;7462;53.530;9.414;2023-04-12T06:40:11;8.00;99.90
14741;DHT22;7462;53.530;9.414;2023-04-12T06:42:40;8.00;99.90
14741;DHT22;7462;53.530;9.414;2023-04-12T06:45:10;8.00;99.90
14741;DHT22;7462;53.530;9.414;2023-04-12T06:47:39;7.90;99.90
14741;DHT22;7462;53.530;9.414;2023-04-12T06:50:08;7.80;99.90
14741;DHT22;7462;53.530;9.414;2023-04-12T06:52:36;7.80;99.90
14741;DHT22;7462;53.530;9.414;2023-04-12T06:55:05;7.70;99.90
14741;DHT22;7462;53.530;9.414;2023-04-12T06:57:33;7.70;99.90
14741;DHT22;7462;53.530;9.414;2023-04-12T07:00:04;7.70;99.90
14741;DHT22;7462;53.530;9.414;2023-04-12T07:02:32;7.70;99.90
14741;DHT22;7462;53.530;9.414;2023-04-12T07:05:00;7.60;99.90
14741;DHT22;7462;53.530;9.414;2023-04-12T07:07:28;7.70;99.90
14741;DHT22;7462;53.530;9.414;2023-04-12T07:09:56;7.70;99.90
14741;DHT22;7462;53.530;9.414;2023-04-12T07:12:25;7.70;99.90
14741;DHT22;7462;53.530;9.414;2023-04-12T07:14:54;7.80;99.90
14741;DHT22;7462;53.530;9.414;2023-04-12T07:17:23;7.80;99.90
14741;DHT22;7462;53.530;9.414;2023-04-12T07:19:53;7.90;99.90
14741;DHT22;7462;53.530;9.414;2023-04-12T07:22:21;7.90;99.90
14741;DHT22;7462;53.530;9.414;2023-04-12T07:24:49;8.00;99.90
14741;DHT22;7462;53.530;9.414;2023-04-12T07:27:18;8.00;99.90
14741;DHT22;7462;53.530;9.414;2023-04-12T07:29:46;7.90;99.90
14741;DHT22;7462;53.530;9.414;2023-04-12T07:32:14;7.90;99.90
14741;DHT22;7462;53.530;9.414;2023-04-12T07:34:43;8.00;99.90
14741;DHT22;7462;53.530;9.414;2023-04-12T07:37:11;7.90;99.90
14741;DHT22;7462;53.530;9.414;2023-04-12T07:39:39;8.00;99.90
14741;DHT22;7462;53.530;9.414;2023-04-12T07:42:08;7.90;99.90
14741;DHT22;7462;53.530;9.414;2023-04-12T07:44:36;7.90;99.90
14741;DHT22;7462;53.530;9.414;2023-04-12T07:47:04;8.00;99.90
14741;DHT22;7462;53.530;9.414;2023-04-12T07:49:33;8.00;99.90
14741;DHT22;7462;53.530;9.414;2023-04-12T07:52:02;8.10;99.90
14741;DHT22;7462;53.530;9.414;2023-04-12T07:54:30;8.10;99.90
14741;DHT22;7462;53.530;9.414;2023-04-12T07:57:00;8.00;99.90
14741;DHT22;7462;53.530;9.414;2023-04-12T07:59:29;8.10;99.90
14741;DHT22;7462;53.530;9.414;2023-04-12T08:01:58;8.10;99.90
14741;DHT22;7462;53.530;9.414;2023-04-12T08:04:26;8.20;99.90
14741;DHT22;7462;53.530;9.414;2023-04-12T08:06:59;8.30;99.90
14741;DHT22;7462;53.530;9.414;2023-04-12T08:09:28;8.40;99.90
14741;DHT22;7462;53.530;9.414;2023-04-12T08:11:56;8.50;99.90
14741;DHT22;7462;53.530;9.414;2023-04-12T08:14:25;8.50;99.90
14741;DHT22;7462;53.530;9.414;2023-04-12T08:16:53;8.50;99.90
14741;DHT22;7462;53.530;9.414;2023-04-12T08:19:22;8.50;99.90
14741;DHT22;7462;53.530;9.414;2023-04-12T08:21:50;8.50;99.90
14741;DHT22;7462;53.530;9.414;2023-04-12T08:24:19;8.50;99.90
14741;DHT22;7462;53.530;9.414;2023-04-12T08:26:49;8.60;99.90
14741;DHT22;7462;53.530;9.414;2023-04-12T08:29:17;8.60;99.90
14741;DHT22;7462;53.530;9.414;2023-04-12T08:31:45;8.60;99.90
14741;DHT22;7462;53.530;9.414;2023-04-12T08:34:13;8.70;99.90
14741;DHT22;7462;53.530;9.414;2023-04-12T08:36:41;8.70;99.90
14741;DHT22;7462;53.530;9.414;2023-04-12T08:39:09;8.70;99.90
14741;DHT22;7462;53.530;9.414;2023-04-12T08:41:38;8.70;99.90
14741;DHT22;7462;53.530;9.414;2023-04-12T08:44:10;8.80;99.90
14741;DHT22;7462;53.530;9.414;2023-04-12T08:46:38;8.80;99.90
14741;DHT22;7462;53.530;9.414;2023-04-12T08:49:06;8.80;99.90
14741;DHT22;7462;53.530;9.414;2023-04-12T08:51:34;8.90;99.90
14741;DHT22;7462;53.530;9.414;2023-04-12T08:54:04;9.00;99.90
14741;DHT22;7462;53.530;9.414;2023-04-12T08:56:32;9.00;99.90
14741;DHT22;7462;53.530;9.414;2023-04-12T08:59:00;9.00;99.90
14741;DHT22;7462;53.530;9.414;2023-04-12T09:01:30;9.00;99.90
14741;DHT22;7462;53.530;9.414;2023-04-12T09:03:58;9.10;99.90
14741;DHT22;7462;53.530;9.414;2023-04-12T09:06:27;9.20;99.90
14741;DHT22;7462;53.530;9.414;2023-04-12T09:08:56;9.30;99.90
14741;DHT22;7462;53.530;9.414;2023-04-12T09:11:26;9.30;99.90
14741;DHT22;7462;53.530;9.414;2023-04-12T09:13:55;9.30;99.90
14741;DHT22;7462;53.530;9.414;2023-04-12T09:16:36;9.40;99.90
14741;DHT22;7462;53.530;9.414;2023-04-12T09:19:05;9.50;99.90
14741;DHT22;7462;53.530;9.414;2023-04-12T09:21:34;9.60;99.90
14741;DHT22;7462;53.530;9.414;2023-04-12T09:24:04;9.60;99.90
14741;DHT22;7462;53.530;9.414;2023-04-12T09:26:38;9.60;99.90
14741;DHT22;7462;53.530;9.414;2023-04-12T09:29:21;9.60;99.90
14741;DHT22;7462;53.530;9.414;2023-04-12T09:31:59;9.60;99.90
14741;DHT22;7462;53.530;9.414;2023-04-12T09:34:28;9.60;99.90
14741;DHT22;7462;53.530;9.414;2023-04-12T09:36:56;9.60;99.90
14741;DHT22;7462;53.530;9.414;2023-04-12T09:39:31;9.70;99.90
14741;DHT22;7462;53.530;9.414;2023-04-12T09:42:04;9.60;99.90
14741;DHT22;7462;53.530;9.414;2023-04-12T09:44:44;9.60;99.90
14741;DHT22;7462;53.530;9.414;2023-04-12T09:47:13;9.40;99.90
14741;DHT22;7462;53.530;9.414;2023-04-12T09:49:43;9.40;99.90
14741;DHT22;7462;53.530;9.414;2023-04-12T09:52:12;9.30;99.90
14741;DHT22;7462;53.530;9.414;2023-04-12T09:54:43;9.20;99.90
14741;DHT22;7462;53.530;9.414;2023-04-12T09:57:11;9.10;99.90
14741;DHT22;7462;53.530;9.414;2023-04-12T09:59:40;9.10;99.90
14741;DHT22;7462;53.530;9.414;2023-04-12T10:02:15;9.00;99.90
14741;DHT22;7462;53.530;9.414;2023-04-12T10:04:44;9.00;99.90
14741;DHT22;7462;53.530;9.414;2023-04-12T10:07:12;9.00;99.90
14741;DHT22;7462;53.530;9.414;2023-04-12T10:09:41;9.00;99.90
14741;DHT22;7462;53.530;9.414;2023-04-12T10:12:09;9.00;99.90
14741;DHT22;7462;53.530;9.414;2023-04-12T10:14:38;9.00;99.90
14741;DHT22;7462;53.530;9.414;2023-04-12T10:17:08;9.00;99.90
14741;DHT22;7462;53.530;9.414;2023-04-12T10:19:38;9.00;99.90
14741;DHT22;7462;53.530;9.414;2023-04-12T10:22:06;9.00;99.90
14741;DHT22;7462;53.530;9.414;2023-04-12T10:24:35;9.10;99.90
14741;DHT22;7462;53.530;9.414;2023-04-12T10:27:03;9.10;99.90
14741;DHT22;7462;53.530;9.414;2023-04-12T10:29:32;9.10;99.90
14741;DHT22;7462;53.530;9.414;2023-04-12T10:32:18;9.10;99.90
14741;DHT22;7462;53.530;9.414;2023-04-12T10:34:51;9.10;99.90
14741;DHT22;7462;53.530;9.414;2023-04-12T10:37:19;9.00;99.90
14741;DHT22;7462;53.530;9.414;2023-04-12T10:39:51;9.00;99.90
14741;DHT22;7462;53.530;9.414;2023-04-12T10:42:22;8.90;99.90
14741;DHT22;7462;53.530;9.414;2023-04-12T10:44:52;8.90;99.90
14741;DHT22;7462;53.530;9.414;2023-04-12T10:47:54;8.80;99.90
14741;DHT22;7462;53.530;9.414;2023-04-12T10:50:25;8.80;99.90
14741;DHT22;7462;53.530;9.414;2023-04-12T10:53:22;8.80;99.90
14741;DHT22;7462;53.530;9.414;2023-04-12T10:55:53;8.70;99.90
14741;DHT22;7462;53.530;9.414;2023-04-12T10:58:54;8.80;99.90
14741;DHT22;7462;53.530;9.414;2023-04-12T11:01:27;8.80;99.90
14741;DHT22;7462;53.530;9.414;2023-04-12T11:04:13;8.80;99.90
14741;DHT22;7462;53.530;9.414;2023-04-12T11:06:54;8.90;99.90
14741;DHT22;7462;53.530;9.414;2023-04-12T11:09:39;8.90;99.90
14741;DHT22;7462;53.530;9.414;2023-04-12T11:12:26;8.90;99.90
14741;DHT22;7462;53.530;9.414;2023-04-12T11:14:59;8.90;99.90
14741;DHT22;7462;53.530;9.414;2023-04-12T11:17:52;8.80;99.90
14741;DHT22;7462;53.530;9.414;2023-04-12T11:20:21;8.80;99.90
14741;DHT22;7462;53.530;9.414;2023-04-12T11:22:51;8.80;99.90
14741;DHT22;7462;53.530;9.414;2023-04-12T11:25:22;8.70;99.90
14741;DHT22;7462;53.530;9.414;2023-04-12T11:27:51;8.70;99.90
14741;DHT22;7462;53.530;9.414;2023-04-12T11:30:23;8.70;99.90
14741;DHT22;7462;53.530;9.414;2023-04-12T11:32:51;8.60;99.90
14741;DHT22;7462;53.530;9.414;2023-04-12T11:35:21;8.70;99.90
14741;DHT22;7462;53.530;9.414;2023-04-12T11:37:55;8.60;99.90
14741;DHT22;7462;53.530;9.414;2023-04-12T11:40:25;8.60;99.90
14741;DHT22;7462;53.530;9.414;2023-04-12T11:42:53;8.60;99.90
14741;DHT22;7462;53.530;9.414;2023-04-12T11:45:23;8.60;99.90
14741;DHT22;7462;53.530;9.414;2023-04-12T11:47:52;8.60;99.90
14741;DHT22;7462;53.530;9.414;2023-04-12T11:50:27;8.70;99.90
14741;DHT22;7462;53.530;9.414;2023-04-12T11:53:09;8.70;99.90
14741;DHT22;7462;53.530;9.414;2023-04-12T11:55:38;8.70;99.90
14741;DHT22;7462;53.530;9.414;2023-04-12T11:58:06;8.70;99.90
14741;DHT22;7462;53.530;9.414;2023-04-12T12:00:34;8.60;99.90
14741;DHT22;7462;53.530;9.414;2023-04-12T12:03:03;8.60;99.90
14741;DHT22;7462;53.530;9.414;2023-04-12T12:05:35;8.60;99.90
14741;DHT22;7462;53.530;9.414;2023-04-12T12:08:04;8.60;99.90
14741;DHT22;7462;53.530;9.414;2023-04-12T12:10:36;8.60;99.90
14741;DHT22;7462;53.530;9.414;2023-04-12T12:13:24;8.80;99.90
14741;DHT22;7462;53.530;9.414;2023-04-12T12:15:52;8.80;99.90
14741;DHT22;7462;53.530;9.414;2023-04-12T12:18:24;8.80;99.90
14741;DHT22;7462;53.530;9.414;2023-04-12T12:20:54;8.80;99.90
14741;DHT22;7462;53.530;9.414;2023-04-12T12:23:29;8.90;99.90
14741;DHT22;7462;53.530;9.414;2023-04-12T12:26:00;8.90;99.90
14741;DHT22;7462;53.530;9.414;2023-04-12T12:28:48;8.90;99.90
14741;DHT22;7462;53.530;9.414;2023-04-12T12:31:19;9.00;99.90
14741;DHT22;7462;53.530;9.414;2023-04-12T12:33:48;9.00;99.90
14741;DHT22;7462;53.530;9.414;2023-04-12T12:36:18;9.00;99.90
14741;DHT22;7462;53.530;9.414;2023-04-12T12:38:46;9.10;99.90
14741;DHT22;7462;53.530;9.414;2023-04-12T12:41:19;9.20;99.90
14741;DHT22;7462;53.530;9.414;2023-04-12T12:43:49;9.30;99.90
14741;DHT22;7462;53.530;9.414;2023-04-12T12:46:18;9.30;99.90
14741;DHT22;7462;53.530;9.414;2023-04-12T12:48:47;9.30;99.90
14741;DHT22;7462;53.530;9.414;2023-04-12T12:51:15;9.30;99.90
14741;DHT22;7462;53.530;9.414;2023-04-12T12:53:45;9.20;99.90
14741;DHT22;7462;53.530;9.414;2023-04-12T12:56:14;9.20;99.90
14741;DHT22;7462;53.530;9.414;2023-04-12T12:58:44;9.20;99.90
14741;DHT22;7462;53.530;9.414;2023-04-12T13:01:12;9.20;99.90
14741;DHT22;7462;53.530;9.414;2023-04-12T13:03:40;9.10;99.90
14741;DHT22;7462;53.530;9.414;2023-04-12T13:06:08;9.20;99.90
14741;DHT22;7462;53.530;9.414;2023-04-12T13:08:37;9.20;99.90
14741;DHT22;7462;53.530;9.414;2023-04-12T13:11:05;9.20;99.90
14741;DHT22;7462;53.530;9.414;2023-04-12T13:13:34;9.20;99.90
14741;DHT22;7462;53.530;9.414;2023-04-12T13:16:06;9.10;99.90
14741;DHT22;7462;53.530;9.414;2023-04-12T13:18:34;9.10;99.90
14741;DHT22;7462;53.530;9.414;2023-04-12T13:21:02;9.10;99.90
14741;DHT22;7462;53.530;9.414;2023-04-12T13:23:30;9.20;99.90
14741;DHT22;7462;53.530;9.414;2023-04-12T13:25:58;9.20;99.90
14741;DHT22;7462;53.530;9.414;2023-04-12T13:28:26;9.10;99.90
14741;DHT22;7462;53.530;9.414;2023-04-12T13:30:54;9.10;99.90
14741;DHT22;7462;53.530;9.414;2023-04-12T13:33:24;9.10;99.90
14741;DHT22;7462;53.530;9.414;2023-04-12T13:35:52;9.10;99.90
14741;DHT22;7462;53.530;9.414;2023-04-12T13:38:20;9.10;99.90
14741;DHT22;7462;53.530;9.414;2023-04-12T13:40:48;9.10;99.90
14741;DHT22;7462;53.530;9.414;2023-04-12T13:43:17;9.10;99.90
14741;DHT22;7462;53.530;9.414;2023-04-12T13:45:45;9.10;99.90
14741;DHT22;7462;53.530;9.414;2023-04-12T13:48:13;9.10;99.90
14741;DHT22;7462;53.530;9.414;2023-04-12T13:50:42;9.10;99.90
14741;DHT22;7462;53.530;9.414;2023-04-12T13:53:10;9.00;99.90
14741;DHT22;7462;53.530;9.414;2023-04-12T13:55:39;9.00;99.90
14741;DHT22;7462;53.530;9.414;2023-04-12T13:58:07;9.00;99.90
14741;DHT22;7462;53.530;9.414;2023-04-12T14:00:35;9.00;99.90
14741;DHT22;7462;53.530;9.414;2023-04-12T14:03:03;9.00;99.90
14741;DHT22;7462;53.530;9.414;2023-04-12T14:05:31;9.00;99.90
14741;DHT22;7462;53.530;9.414;2023-04-12T14:08:00;9.00;99.90
14741;DHT22;7462;53.530;9.414;2023-04-12T14:10:28;9.00;99.90
14741;DHT22;7462;53.530;9.414;2023-04-12T14:12:57;9.00;99.90
14741;DHT22;7462;53.530;9.414;2023-04-12T14:15:25;9.00;99.90
14741;DHT22;7462;53.530;9.414;2023-04-12T14:17:53;9.00;99.90
14741;DHT22;7462;53.530;9.414;2023-04-12T14:20:21;9.00;99.90
14741;DHT22;7462;53.530;9.414;2023-04-12T14:22:50;9.00;99.90
14741;DHT22;7462;53.530;9.414;2023-04-12T14:25:19;9.00;99.90
14741;DHT22;7462;53.530;9.414;2023-04-12T14:27:47;9.00;99.90
14741;DHT22;7462;53.530;9.414;2023-04-12T14:30:16;9.00;99.90
14741;DHT22;7462;53.530;9.414;2023-04-12T14:32:45;9.00;99.90
14741;DHT22;7462;53.530;9.414;2023-04-12T14:35:15;9.00;99.90
14741;DHT22;7462;53.530;9.414;2023-04-12T14:37:44;9.00;99.90
14741;DHT22;7462;53.530;9.414;2023-04-12T14:40:14;9.00;99.90
14741;DHT22;7462;53.530;9.414;2023-04-12T14:42:44;9.00;99.90
14741;DHT22;7462;53.530;9.414;2023-04-12T14:45:12;9.00;99.90
14741;DHT22;7462;53.530;9.414;2023-04-12T14:47:41;9.00;99.90
14741;DHT22;7462;53.530;9.414;2023-04-12T14:50:09;9.00;99.90
14741;DHT22;7462;53.530;9.414;2023-04-12T14:52:37;9.10;99.90
14741;DHT22;7462;53.530;9.414;2023-04-12T14:55:06;9.10;99.90
14741;DHT22;7462;53.530;9.414;2023-04-12T14:57:37;9.10;99.90
14741;DHT22;7462;53.530;9.414;2023-04-12T15:00:08;9.20;99.90
14741;DHT22;7462;53.530;9.414;2023-04-12T15:02:39;9.30;99.90
14741;DHT22;7462;53.530;9.414;2023-04-12T15:05:08;9.20;99.90
14741;DHT22;7462;53.530;9.414;2023-04-12T15:07:36;9.20;99.90
14741;DHT22;7462;53.530;9.414;2023-04-12T15:10:06;9.20;99.90
14741;DHT22;7462;53.530;9.414;2023-04-12T15:12:34;9.30;99.90
14741;DHT22;7462;53.530;9.414;2023-04-12T15:15:03;9.40;99.90
14741;DHT22;7462;53.530;9.414;2023-04-12T15:17:35;9.40;99.90
14741;DHT22;7462;53.530;9.414;2023-04-12T15:20:04;9.40;99.90
14741;DHT22;7462;53.530;9.414;2023-04-12T15:22:37;9.40;99.90
14741;DHT22;7462;53.530;9.414;2023-04-12T15:25:07;9.40;99.90
14741;DHT22;7462;53.530;9.414;2023-04-12T15:27:36;9.40;99.90
14741;DHT22;7462;53.530;9.414;2023-04-12T15:30:05;9.40;99.90
14741;DHT22;7462;53.530;9.414;2023-04-12T15:32:37;9.40;99.90
14741;DHT22;7462;53.530;9.414;2023-04-12T15:35:08;9.40;99.90
14741;DHT22;7462;53.530;9.414;2023-04-12T15:37:39;9.40;99.90
14741;DHT22;7462;53.530;9.414;2023-04-12T15:40:08;9.40;99.90
14741;DHT22;7462;53.530;9.414;2023-04-12T15:42:39;9.50;99.90
14741;DHT22;7462;53.530;9.414;2023-04-12T15:45:09;9.50;99.90
14741;DHT22;7462;53.530;9.414;2023-04-12T15:47:39;9.50;99.90
14741;DHT22;7462;53.530;9.414;2023-04-12T15:50:07;9.50;99.90
14741;DHT22;7462;53.530;9.414;2023-04-12T15:52:36;9.50;99.90
14741;DHT22;7462;53.530;9.414;2023-04-12T15:55:04;9.60;99.90
14741;DHT22;7462;53.530;9.414;2023-04-12T15:57:32;9.50;99.90
14741;DHT22;7462;53.530;9.414;2023-04-12T16:00:03;9.50;99.90
14741;DHT22;7462;53.530;9.414;2023-04-12T16:02:40;9.50;99.90
14741;DHT22;7462;53.530;9.414;2023-04-12T16:05:15;9.50;99.90
14741;DHT22;7462;53.530;9.414;2023-04-12T16:07:44;9.60;99.90
14741;DHT22;7462;53.530;9.414;2023-04-12T16:10:12;9.60;99.90
14741;DHT22;7462;53.530;9.414;2023-04-12T16:12:40;9.60;99.90
14741;DHT22;7462;53.530;9.414;2023-04-12T16:15:09;9.60;99.90
14741;DHT22;7462;53.530;9.414;2023-04-12T16:17:37;9.60;99.90
14741;DHT22;7462;53.530;9.414;2023-04-12T16:20:08;9.60;99.90
14741;DHT22;7462;53.530;9.414;2023-04-12T16:22:39;9.60;99.90
14741;DHT22;7462;53.530;9.414;2023-04-12T16:25:08;9.60;99.90